sensor_id;sensor_type;location;lat;lon;timestamp;P1;durP1;ratioP1;P2;durP2;ratioP2
59974;SDS011;62136;-35.664;-63.766;2023-10-19T00:00:54;1.42;;;1.30;;
59974;SDS011;62136;-35.664;-63.766;2023-10-19T00:03:22;2.65;;;1.48;;
59974;SDS011;62136;-35.664;-63.766;2023-10-19T00:05:51;2.42;;;1.30;;
59974;SDS011;62136;-35.664;-63.766;2023-10-19T00:08:18;2.10;;;1.40;;
59974;SDS011;62136;-35.664;-63.766;2023-10-19T00:10:47;2.45;;;1.40;;
59974;SDS011;62136;-35.664;-63.766;2023-10-19T00:13:41;1.83;;;1.30;;
59974;SDS011;62136;-35.664;-63.766;2023-10-19T00:16:09;2.20;;;1.42;;
59974;SDS011;62136;-35.664;-63.766;2023-10-19T00:18:43;2.90;;;1.50;;
59974;SDS011;62136;-35.664;-63.766;2023-10-19T00:21:10;2.42;;;1.30;;
59974;SDS011;62136;-35.664;-63.766;2023-10-19T00:23:51;2.00;;;1.20;;
59974;SDS011;62136;-35.664;-63.766;2023-10-19T00:26:23;1.40;;;1.30;;
59974;SDS011;62136;-35.664;-63.766;2023-10-19T00:28:52;1.90;;;1.30;;
59974;SDS011;62136;-35.664;-63.766;2023-10-19T00:31:24;1.85;;;1.40;;
59974;SDS011;62136;-35.664;-63.766;2023-10-19T00:33:59;2.15;;;1.40;;
59974;SDS011;62136;-35.664;-63.766;2023-10-19T00:36:26;1.92;;;1.13;;
59974;SDS011;62136;-35.664;-63.766;2023-10-19T00:38:56;1.45;;;1.20;;
59974;SDS011;62136;-35.664;-63.766;2023-10-19T00:41:26;3.20;;;1.60;;
59974;SDS011;62136;-35.664;-63.766;2023-10-19T00:43:55;2.13;;;1.10;;
59974;SDS011;62136;-35.664;-63.766;2023-10-19T00:46:32;2.22;;;1.30;;
59974;SDS011;62136;-35.664;-63.766;2023-10-19T00:49:09;1.60;;;1.42;;
59974;SDS011;62136;-35.664;-63.766;2023-10-19T00:52:01;1.80;;;1.23;;
59974;SDS011;62136;-35.664;-63.766;2023-10-19T00:54:29;2.05;;;1.25;;
59974;SDS011;62136;-35.664;-63.766;2023-10-19T00:57:03;1.58;;;1.15;;
59974;SDS011;62136;-35.664;-63.766;2023-10-19T00:59:41;2.97;;;1.52;;
59974;SDS011;62136;-35.664;-63.766;2023-10-19T01:02:18;2.17;;;1.45;;
59974;SDS011;62136;-35.664;-63.766;2023-10-19T01:04:48;1.95;;;1.42;;
59974;SDS011;62136;-35.664;-63.766;2023-10-19T01:07:25;1.63;;;1.30;;
59974;SDS011;62136;-35.664;-63.766;2023-10-19T01:09:58;1.83;;;1.50;;
59974;SDS011;62136;-35.664;-63.766;2023-10-19T01:12:29;2.03;;;1.38;;
59974;SDS011;62136;-35.664;-63.766;2023-10-19T01:15:09;2.33;;;1.35;;
59974;SDS011;62136;-35.664;-63.766;2023-10-19T01:17:54;2.55;;;1.33;;
59974;SDS011;62136;-35.664;-63.766;2023-10-19T01:20:26;1.95;;;1.20;;
59974;SDS011;62136;-35.664;-63.766;2023-10-19T01:22:55;3.22;;;1.10;;
59974;SDS011;62136;-35.664;-63.766;2023-10-19T01:25:32;3.22;;;1.30;;
59974;SDS011;62136;-35.664;-63.766;2023-10-19T01:28:26;1.58;;;1.08;;
59974;SDS011;62136;-35.664;-63.766;2023-10-19T01:33:54;1.17;;;0.90;;
59974;SDS011;62136;-35.664;-63.766;2023-10-19T01:36:26;2.20;;;1.30;;
59974;SDS011;62136;-35.664;-63.766;2023-10-19T01:38:54;1.52;;;1.27;;
59974;SDS011;62136;-35.664;-63.766;2023-10-19T01:41:26;1.33;;;1.20;;
59974;SDS011;62136;-35.664;-63.766;2023-10-19T01:43:56;1.77;;;1.50;;
59974;SDS011;62136;-35.664;-63.766;2023-10-19T01:46:29;1.65;;;1.30;;
59974;SDS011;62136;-35.664;-63.766;2023-10-19T01:48:59;1.23;;;1.00;;
59974;SDS011;62136;-35.664;-63.766;2023-10-19T01:51:29;1.83;;;1.10;;
59974;SDS011;62136;-35.664;-63.766;2023-10-19T01:53:58;2.33;;;1.38;;
59974;SDS011;62136;-35.664;-63.766;2023-10-19T01:56:29;2.03;;;1.08;;
59974;SDS011;62136;-35.664;-63.766;2023-10-19T01:58:56;1.95;;;1.20;;
59974;SDS011;62136;-35.664;-63.766;2023-10-19T02:01:24;2.03;;;1.20;;
59974;SDS011;62136;-35.664;-63.766;2023-10-19T02:03:51;1.95;;;1.20;;
59974;SDS011;62136;-35.664;-63.766;2023-10-19T02:06:20;1.33;;;1.20;;
59974;SDS011;62136;-35.664;-63.766;2023-10-19T02:09:08;1.77;;;1.10;;
59974;SDS011;62136;-35.664;-63.766;2023-10-19T02:11:43;2.63;;;1.15;;
59974;SDS011;62136;-35.664;-63.766;2023-10-19T02:14:12;1.02;;;0.93;;
59974;SDS011;62136;-35.664;-63.766;2023-10-19T02:16:43;1.48;;;1.20;;
59974;SDS011;62136;-35.664;-63.766;2023-10-19T02:19:16;1.50;;;1.15;;
59974;SDS011;62136;-35.664;-63.766;2023-10-19T02:21:45;2.40;;;1.20;;
59974;SDS011;62136;-35.664;-63.766;2023-10-19T02:24:18;1.30;;;1.10;;
59974;SDS011;62136;-35.664;-63.766;2023-10-19T02:26:46;1.67;;;1.00;;
59974;SDS011;62136;-35.664;-63.766;2023-10-19T02:29:16;2.30;;;1.38;;
59974;SDS011;62136;-35.664;-63.766;2023-10-19T02:31:44;3.45;;;1.10;;
59974;SDS011;62136;-35.664;-63.766;2023-10-19T02:34:13;1.42;;;0.90;;
59974;SDS011;62136;-35.664;-63.766;2023-10-19T02:36:41;0.80;;;0.80;;
59974;SDS011;62136;-35.664;-63.766;2023-10-19T02:39:10;1.05;;;0.90;;
59974;SDS011;62136;-35.664;-63.766;2023-10-19T02:41:40;1.50;;;1.00;;
59974;SDS011;62136;-35.664;-63.766;2023-10-19T02:44:15;2.15;;;1.13;;
59974;SDS011;62136;-35.664;-63.766;2023-10-19T02:46:51;1.97;;;1.00;;
59974;SDS011;62136;-35.664;-63.766;2023-10-19T02:49:24;1.58;;;0.95;;
59974;SDS011;62136;-35.664;-63.766;2023-10-19T02:51:52;1.30;;;0.90;;
59974;SDS011;62136;-35.664;-63.766;2023-10-19T02:54:20;2.40;;;1.00;;
59974;SDS011;62136;-35.664;-63.766;2023-10-19T02:56:53;1.13;;;0.90;;
59974;SDS011;62136;-35.664;-63.766;2023-10-19T03:02:00;1.65;;;0.77;;
59974;SDS011;62136;-35.664;-63.766;2023-10-19T03:04:37;3.60;;;1.20;;
59974;SDS011;62136;-35.664;-63.766;2023-10-19T03:07:11;2.22;;;0.90;;
59974;SDS011;62136;-35.664;-63.766;2023-10-19T03:09:38;1.67;;;1.08;;
59974;SDS011;62136;-35.664;-63.766;2023-10-19T03:12:14;0.88;;;0.80;;
59974;SDS011;62136;-35.664;-63.766;2023-10-19T03:14:42;2.83;;;1.17;;
59974;SDS011;62136;-35.664;-63.766;2023-10-19T03:17:12;2.58;;;1.38;;
59974;SDS011;62136;-35.664;-63.766;2023-10-19T03:19:39;1.33;;;0.90;;
59974;SDS011;62136;-35.664;-63.766;2023-10-19T03:22:07;1.48;;;0.80;;
59974;SDS011;62136;-35.664;-63.766;2023-10-19T03:24:35;1.48;;;1.00;;
59974;SDS011;62136;-35.664;-63.766;2023-10-19T03:27:09;0.98;;;0.98;;
59974;SDS011;62136;-35.664;-63.766;2023-10-19T03:29:41;1.45;;;1.10;;
59974;SDS011;62136;-35.664;-63.766;2023-10-19T03:32:19;2.15;;;1.00;;
59974;SDS011;62136;-35.664;-63.766;2023-10-19T03:34:54;1.20;;;0.90;;
59974;SDS011;62136;-35.664;-63.766;2023-10-19T03:37:22;1.63;;;0.90;;
59974;SDS011;62136;-35.664;-63.766;2023-10-19T03:39:51;0.88;;;0.65;;
59974;SDS011;62136;-35.664;-63.766;2023-10-19T03:42:21;0.80;;;0.68;;
59974;SDS011;62136;-35.664;-63.766;2023-10-19T03:44:53;2.00;;;0.90;;
59974;SDS011;62136;-35.664;-63.766;2023-10-19T03:47:20;2.55;;;0.93;;
59974;SDS011;62136;-35.664;-63.766;2023-10-19T03:49:51;1.25;;;0.90;;
59974;SDS011;62136;-35.664;-63.766;2023-10-19T03:52:19;1.35;;;0.77;;
59974;SDS011;62136;-35.664;-63.766;2023-10-19T03:54:46;1.85;;;1.00;;
59974;SDS011;62136;-35.664;-63.766;2023-10-19T03:57:15;1.05;;;0.80;;
59974;SDS011;62136;-35.664;-63.766;2023-10-19T03:59:48;1.38;;;0.75;;
59974;SDS011;62136;-35.664;-63.766;2023-10-19T04:02:16;1.67;;;0.80;;
59974;SDS011;62136;-35.664;-63.766;2023-10-19T04:04:46;0.70;;;0.70;;
59974;SDS011;62136;-35.664;-63.766;2023-10-19T04:07:14;0.70;;;0.70;;
59974;SDS011;62136;-35.664;-63.766;2023-10-19T04:09:54;1.30;;;0.90;;
59974;SDS011;62136;-35.664;-63.766;2023-10-19T04:12:42;1.70;;;1.00;;
59974;SDS011;62136;-35.664;-63.766;2023-10-19T04:15:09;1.10;;;1.00;;
59974;SDS011;62136;-35.664;-63.766;2023-10-19T04:17:44;1.88;;;0.85;;
59974;SDS011;62136;-35.664;-63.766;2023-10-19T04:20:13;0.90;;;0.70;;
59974;SDS011;62136;-35.664;-63.766;2023-10-19T04:22:45;1.13;;;0.80;;
59974;SDS011;62136;-35.664;-63.766;2023-10-19T04:25:16;1.25;;;0.70;;
59974;SDS011;62136;-35.664;-63.766;2023-10-19T04:27:45;1.65;;;1.02;;
59974;SDS011;62136;-35.664;-63.766;2023-10-19T04:30:14;1.00;;;0.73;;
59974;SDS011;62136;-35.664;-63.766;2023-10-19T04:32:42;0.90;;;0.73;;
59974;SDS011;62136;-35.664;-63.766;2023-10-19T04:35:11;1.33;;;0.90;;
59974;SDS011;62136;-35.664;-63.766;2023-10-19T04:37:48;1.88;;;0.90;;
59974;SDS011;62136;-35.664;-63.766;2023-10-19T04:40:22;1.00;;;0.70;;
59974;SDS011;62136;-35.664;-63.766;2023-10-19T04:42:53;1.88;;;0.95;;
59974;SDS011;62136;-35.664;-63.766;2023-10-19T04:45:20;1.10;;;1.00;;
59974;SDS011;62136;-35.664;-63.766;2023-10-19T04:47:50;0.60;;;0.60;;
59974;SDS011;62136;-35.664;-63.766;2023-10-19T04:50:18;0.90;;;0.80;;
59974;SDS011;62136;-35.664;-63.766;2023-10-19T04:52:45;1.13;;;0.75;;
59974;SDS011;62136;-35.664;-63.766;2023-10-19T04:55:15;2.00;;;0.70;;
59974;SDS011;62136;-35.664;-63.766;2023-10-19T04:57:42;0.70;;;0.70;;
59974;SDS011;62136;-35.664;-63.766;2023-10-19T05:00:10;1.23;;;0.65;;
59974;SDS011;62136;-35.664;-63.766;2023-10-19T05:02:38;1.77;;;0.70;;
59974;SDS011;62136;-35.664;-63.766;2023-10-19T05:05:05;0.63;;;0.63;;
59974;SDS011;62136;-35.664;-63.766;2023-10-19T05:07:33;0.98;;;0.60;;
59974;SDS011;62136;-35.664;-63.766;2023-10-19T05:10:00;1.48;;;0.80;;
59974;SDS011;62136;-35.664;-63.766;2023-10-19T05:12:28;0.80;;;0.80;;
59974;SDS011;62136;-35.664;-63.766;2023-10-19T05:14:55;1.35;;;0.80;;
59974;SDS011;62136;-35.664;-63.766;2023-10-19T05:17:22;0.88;;;0.70;;
59974;SDS011;62136;-35.664;-63.766;2023-10-19T05:19:49;2.50;;;0.90;;
59974;SDS011;62136;-35.664;-63.766;2023-10-19T05:22:16;0.90;;;0.68;;
59974;SDS011;62136;-35.664;-63.766;2023-10-19T05:24:44;1.02;;;0.60;;
59974;SDS011;62136;-35.664;-63.766;2023-10-19T05:27:13;0.70;;;0.70;;
59974;SDS011;62136;-35.664;-63.766;2023-10-19T05:29:40;0.88;;;0.68;;
59974;SDS011;62136;-35.664;-63.766;2023-10-19T05:32:07;1.02;;;0.60;;
59974;SDS011;62136;-35.664;-63.766;2023-10-19T05:34:34;1.00;;;0.60;;
59974;SDS011;62136;-35.664;-63.766;2023-10-19T05:37:02;1.25;;;0.75;;
59974;SDS011;62136;-35.664;-63.766;2023-10-19T05:39:31;1.17;;;0.65;;
59974;SDS011;62136;-35.664;-63.766;2023-10-19T05:41:59;1.02;;;0.70;;
59974;SDS011;62136;-35.664;-63.766;2023-10-19T05:44:27;0.95;;;0.70;;
59974;SDS011;62136;-35.664;-63.766;2023-10-19T05:46:57;0.98;;;0.55;;
59974;SDS011;62136;-35.664;-63.766;2023-10-19T05:49:24;1.05;;;0.50;;
59974;SDS011;62136;-35.664;-63.766;2023-10-19T05:51:51;1.00;;;0.60;;
59974;SDS011;62136;-35.664;-63.766;2023-10-19T05:54:18;0.68;;;0.60;;
59974;SDS011;62136;-35.664;-63.766;2023-10-19T05:56:49;2.10;;;0.90;;
59974;SDS011;62136;-35.664;-63.766;2023-10-19T05:59:17;0.77;;;0.75;;
59974;SDS011;62136;-35.664;-63.766;2023-10-19T06:01:44;0.65;;;0.57;;
59974;SDS011;62136;-35.664;-63.766;2023-10-19T06:04:14;1.40;;;0.40;;
59974;SDS011;62136;-35.664;-63.766;2023-10-19T06:06:41;0.68;;;0.60;;
59974;SDS011;62136;-35.664;-63.766;2023-10-19T06:09:08;1.05;;;0.75;;
59974;SDS011;62136;-35.664;-63.766;2023-10-19T06:11:35;1.08;;;0.60;;
59974;SDS011;62136;-35.664;-63.766;2023-10-19T06:14:08;1.10;;;0.70;;
59974;SDS011;62136;-35.664;-63.766;2023-10-19T06:16:35;1.45;;;0.80;;
59974;SDS011;62136;-35.664;-63.766;2023-10-19T06:19:03;0.85;;;0.82;;
59974;SDS011;62136;-35.664;-63.766;2023-10-19T06:21:30;0.52;;;0.50;;
59974;SDS011;62136;-35.664;-63.766;2023-10-19T06:23:59;0.98;;;0.70;;
59974;SDS011;62136;-35.664;-63.766;2023-10-19T06:26:26;1.88;;;0.73;;
59974;SDS011;62136;-35.664;-63.766;2023-10-19T06:28:53;0.50;;;0.50;;
59974;SDS011;62136;-35.664;-63.766;2023-10-19T06:31:25;0.77;;;0.60;;
59974;SDS011;62136;-35.664;-63.766;2023-10-19T06:33:53;1.00;;;0.75;;
59974;SDS011;62136;-35.664;-63.766;2023-10-19T06:36:22;0.75;;;0.50;;
59974;SDS011;62136;-35.664;-63.766;2023-10-19T06:38:49;0.90;;;0.60;;
59974;SDS011;62136;-35.664;-63.766;2023-10-19T06:41:16;0.77;;;0.70;;
59974;SDS011;62136;-35.664;-63.766;2023-10-19T06:43:43;0.60;;;0.60;;
59974;SDS011;62136;-35.664;-63.766;2023-10-19T06:46:12;2.35;;;0.60;;
59974;SDS011;62136;-35.664;-63.766;2023-10-19T06:48:40;1.17;;;0.63;;
59974;SDS011;62136;-35.664;-63.766;2023-10-19T06:51:08;0.90;;;0.57;;
59974;SDS011;62136;-35.664;-63.766;2023-10-19T06:53:35;1.42;;;0.60;;
59974;SDS011;62136;-35.664;-63.766;2023-10-19T06:56:02;1.38;;;0.60;;
59974;SDS011;62136;-35.664;-63.766;2023-10-19T06:58:29;0.80;;;0.80;;
59974;SDS011;62136;-35.664;-63.766;2023-10-19T07:00:56;0.70;;;0.70;;
59974;SDS011;62136;-35.664;-63.766;2023-10-19T07:03:30;1.35;;;0.65;;
59974;SDS011;62136;-35.664;-63.766;2023-10-19T07:05:58;1.10;;;0.60;;
59974;SDS011;62136;-35.664;-63.766;2023-10-19T07:08:25;2.05;;;0.70;;
59974;SDS011;62136;-35.664;-63.766;2023-10-19T07:10:52;0.85;;;0.73;;
59974;SDS011;62136;-35.664;-63.766;2023-10-19T07:13:19;0.77;;;0.60;;
59974;SDS011;62136;-35.664;-63.766;2023-10-19T07:15:47;0.85;;;0.60;;
59974;SDS011;62136;-35.664;-63.766;2023-10-19T07:18:15;0.60;;;0.60;;
59974;SDS011;62136;-35.664;-63.766;2023-10-19T07:20:42;0.90;;;0.70;;
59974;SDS011;62136;-35.664;-63.766;2023-10-19T07:23:13;2.08;;;0.60;;
59974;SDS011;62136;-35.664;-63.766;2023-10-19T07:25:52;1.38;;;0.60;;
59974;SDS011;62136;-35.664;-63.766;2023-10-19T07:28:25;0.80;;;0.80;;
59974;SDS011;62136;-35.664;-63.766;2023-10-19T07:30:53;0.68;;;0.68;;
59974;SDS011;62136;-35.664;-63.766;2023-10-19T07:33:21;1.77;;;0.57;;
59974;SDS011;62136;-35.664;-63.766;2023-10-19T07:35:49;0.80;;;0.70;;
59974;SDS011;62136;-35.664;-63.766;2023-10-19T07:38:25;0.73;;;0.57;;
59974;SDS011;62136;-35.664;-63.766;2023-10-19T07:40:54;0.70;;;0.43;;
59974;SDS011;62136;-35.664;-63.766;2023-10-19T07:43:21;0.80;;;0.55;;
59974;SDS011;62136;-35.664;-63.766;2023-10-19T07:45:50;1.25;;;0.50;;
59974;SDS011;62136;-35.664;-63.766;2023-10-19T07:48:17;1.27;;;0.65;;
59974;SDS011;62136;-35.664;-63.766;2023-10-19T07:50:44;1.10;;;0.60;;
59974;SDS011;62136;-35.664;-63.766;2023-10-19T07:53:12;0.70;;;0.70;;
59974;SDS011;62136;-35.664;-63.766;2023-10-19T07:55:39;1.33;;;0.60;;
59974;SDS011;62136;-35.664;-63.766;2023-10-19T07:58:07;0.50;;;0.50;;
59974;SDS011;62136;-35.664;-63.766;2023-10-19T08:00:35;1.05;;;0.57;;
59974;SDS011;62136;-35.664;-63.766;2023-10-19T08:03:03;1.60;;;0.70;;
59974;SDS011;62136;-35.664;-63.766;2023-10-19T08:05:31;1.20;;;0.47;;
59974;SDS011;62136;-35.664;-63.766;2023-10-19T08:07:59;1.20;;;0.80;;
59974;SDS011;62136;-35.664;-63.766;2023-10-19T08:10:26;0.50;;;0.50;;
59974;SDS011;62136;-35.664;-63.766;2023-10-19T08:12:53;1.48;;;0.70;;
59974;SDS011;62136;-35.664;-63.766;2023-10-19T08:15:20;1.45;;;0.80;;
59974;SDS011;62136;-35.664;-63.766;2023-10-19T08:17:49;1.10;;;0.60;;
59974;SDS011;62136;-35.664;-63.766;2023-10-19T08:20:19;0.90;;;0.57;;
59974;SDS011;62136;-35.664;-63.766;2023-10-19T08:22:50;0.88;;;0.60;;
59974;SDS011;62136;-35.664;-63.766;2023-10-19T08:25:18;1.33;;;0.57;;
59974;SDS011;62136;-35.664;-63.766;2023-10-19T08:27:46;0.88;;;0.50;;
59974;SDS011;62136;-35.664;-63.766;2023-10-19T08:30:20;1.35;;;0.50;;
59974;SDS011;62136;-35.664;-63.766;2023-10-19T08:32:48;1.13;;;0.50;;
59974;SDS011;62136;-35.664;-63.766;2023-10-19T08:35:15;1.45;;;0.65;;
59974;SDS011;62136;-35.664;-63.766;2023-10-19T08:37:50;0.75;;;0.60;;
59974;SDS011;62136;-35.664;-63.766;2023-10-19T08:40:21;0.68;;;0.68;;
59974;SDS011;62136;-35.664;-63.766;2023-10-19T08:42:54;1.23;;;1.00;;
59974;SDS011;62136;-35.664;-63.766;2023-10-19T08:45:21;1.33;;;0.63;;
59974;SDS011;62136;-35.664;-63.766;2023-10-19T08:50:25;0.70;;;0.55;;
59974;SDS011;62136;-35.664;-63.766;2023-10-19T08:52:54;0.85;;;0.60;;
59974;SDS011;62136;-35.664;-63.766;2023-10-19T08:55:23;0.65;;;0.50;;
59974;SDS011;62136;-35.664;-63.766;2023-10-19T08:57:51;1.25;;;0.60;;
59974;SDS011;62136;-35.664;-63.766;2023-10-19T09:00:19;1.30;;;0.70;;
59974;SDS011;62136;-35.664;-63.766;2023-10-19T09:02:53;1.23;;;0.70;;
59974;SDS011;62136;-35.664;-63.766;2023-10-19T09:05:25;0.40;;;0.40;;
59974;SDS011;62136;-35.664;-63.766;2023-10-19T09:07:53;0.82;;;0.60;;
59974;SDS011;62136;-35.664;-63.766;2023-10-19T09:13:02;0.82;;;0.70;;
59974;SDS011;62136;-35.664;-63.766;2023-10-19T09:15:30;1.13;;;0.68;;
59974;SDS011;62136;-35.664;-63.766;2023-10-19T09:18:17;1.60;;;0.65;;
59974;SDS011;62136;-35.664;-63.766;2023-10-19T09:20:49;1.20;;;0.68;;
59974;SDS011;62136;-35.664;-63.766;2023-10-19T09:23:27;1.83;;;0.65;;
59974;SDS011;62136;-35.664;-63.766;2023-10-19T09:25:56;1.48;;;0.60;;
59974;SDS011;62136;-35.664;-63.766;2023-10-19T09:28:24;0.77;;;0.70;;
59974;SDS011;62136;-35.664;-63.766;2023-10-19T09:30:51;0.60;;;0.50;;
59974;SDS011;62136;-35.664;-63.766;2023-10-19T09:33:22;1.60;;;0.70;;
59974;SDS011;62136;-35.664;-63.766;2023-10-19T09:35:50;1.08;;;0.60;;
59974;SDS011;62136;-35.664;-63.766;2023-10-19T09:38:15;1.77;;;0.68;;
59974;SDS011;62136;-35.664;-63.766;2023-10-19T09:40:52;1.13;;;0.60;;
59974;SDS011;62136;-35.664;-63.766;2023-10-19T09:46:00;0.77;;;0.50;;
59974;SDS011;62136;-35.664;-63.766;2023-10-19T09:48:31;0.50;;;0.50;;
59974;SDS011;62136;-35.664;-63.766;2023-10-19T09:51:13;2.17;;;0.50;;
59974;SDS011;62136;-35.664;-63.766;2023-10-19T09:53:51;1.60;;;0.60;;
59974;SDS011;62136;-35.664;-63.766;2023-10-19T09:56:32;0.60;;;0.60;;
59974;SDS011;62136;-35.664;-63.766;2023-10-19T09:59:13;2.50;;;0.60;;
59974;SDS011;62136;-35.664;-63.766;2023-10-19T10:04:47;1.15;;;0.80;;
59974;SDS011;62136;-35.664;-63.766;2023-10-19T10:07:15;0.50;;;0.50;;
59974;SDS011;62136;-35.664;-63.766;2023-10-19T10:09:43;1.25;;;0.80;;
59974;SDS011;62136;-35.664;-63.766;2023-10-19T10:12:15;1.58;;;0.80;;
59974;SDS011;62136;-35.664;-63.766;2023-10-19T10:15:00;0.40;;;0.40;;
59974;SDS011;62136;-35.664;-63.766;2023-10-19T10:17:28;2.08;;;0.57;;
59974;SDS011;62136;-35.664;-63.766;2023-10-19T10:19:55;2.10;;;1.23;;
59974;SDS011;62136;-35.664;-63.766;2023-10-19T10:22:43;1.80;;;0.70;;
59974;SDS011;62136;-35.664;-63.766;2023-10-19T10:25:26;0.95;;;0.55;;
59974;SDS011;62136;-35.664;-63.766;2023-10-19T10:27:55;0.55;;;0.52;;
59974;SDS011;62136;-35.664;-63.766;2023-10-19T10:30:22;1.58;;;0.80;;
59974;SDS011;62136;-35.664;-63.766;2023-10-19T10:32:50;1.58;;;1.23;;
59974;SDS011;62136;-35.664;-63.766;2023-10-19T10:38:10;1.48;;;0.75;;
59974;SDS011;62136;-35.664;-63.766;2023-10-19T10:40:49;0.65;;;0.60;;
59974;SDS011;62136;-35.664;-63.766;2023-10-19T10:43:18;0.95;;;0.80;;
59974;SDS011;62136;-35.664;-63.766;2023-10-19T10:45:47;1.42;;;0.80;;
59974;SDS011;62136;-35.664;-63.766;2023-10-19T10:48:14;2.75;;;0.93;;
59974;SDS011;62136;-35.664;-63.766;2023-10-19T10:50:43;2.42;;;0.80;;
59974;SDS011;62136;-35.664;-63.766;2023-10-19T10:53:12;0.98;;;0.88;;
59974;SDS011;62136;-35.664;-63.766;2023-10-19T10:55:43;1.42;;;0.90;;
59974;SDS011;62136;-35.664;-63.766;2023-10-19T10:58:14;2.22;;;1.00;;
59974;SDS011;62136;-35.664;-63.766;2023-10-19T11:00:43;2.58;;;1.38;;
59974;SDS011;62136;-35.664;-63.766;2023-10-19T11:03:12;3.35;;;1.15;;
59974;SDS011;62136;-35.664;-63.766;2023-10-19T11:05:41;2.35;;;0.90;;
59974;SDS011;62136;-35.664;-63.766;2023-10-19T11:08:17;2.70;;;1.17;;
59974;SDS011;62136;-35.664;-63.766;2023-10-19T11:10:47;2.55;;;1.30;;
59974;SDS011;62136;-35.664;-63.766;2023-10-19T11:13:15;4.03;;;1.55;;
59974;SDS011;62136;-35.664;-63.766;2023-10-19T11:15:50;1.15;;;0.98;;
59974;SDS011;62136;-35.664;-63.766;2023-10-19T11:21:18;2.10;;;1.30;;
59974;SDS011;62136;-35.664;-63.766;2023-10-19T11:23:46;3.63;;;1.25;;
59974;SDS011;62136;-35.664;-63.766;2023-10-19T11:26:21;5.55;;;1.35;;
59974;SDS011;62136;-35.664;-63.766;2023-10-19T11:29:02;5.05;;;1.25;;
59974;SDS011;62136;-35.664;-63.766;2023-10-19T11:31:29;3.42;;;1.10;;
59974;SDS011;62136;-35.664;-63.766;2023-10-19T11:34:07;2.65;;;1.65;;
59974;SDS011;62136;-35.664;-63.766;2023-10-19T11:39:00;4.88;;;1.58;;
59974;SDS011;62136;-35.664;-63.766;2023-10-19T11:41:29;8.98;;;2.20;;
59974;SDS011;62136;-35.664;-63.766;2023-10-19T11:43:57;4.10;;;1.88;;
59974;SDS011;62136;-35.664;-63.766;2023-10-19T11:46:25;7.72;;;2.25;;
59974;SDS011;62136;-35.664;-63.766;2023-10-19T11:48:52;8.35;;;2.58;;
59974;SDS011;62136;-35.664;-63.766;2023-10-19T11:51:20;5.10;;;2.38;;
59974;SDS011;62136;-35.664;-63.766;2023-10-19T11:53:48;6.28;;;2.80;;
59974;SDS011;62136;-35.664;-63.766;2023-10-19T11:56:16;7.05;;;2.35;;
59974;SDS011;62136;-35.664;-63.766;2023-10-19T11:58:43;7.05;;;2.35;;
59974;SDS011;62136;-35.664;-63.766;2023-10-19T12:01:12;7.25;;;2.58;;
59974;SDS011;62136;-35.664;-63.766;2023-10-19T12:03:42;7.68;;;3.05;;
59974;SDS011;62136;-35.664;-63.766;2023-10-19T12:06:11;7.75;;;2.53;;
59974;SDS011;62136;-35.664;-63.766;2023-10-19T12:08:44;10.57;;;3.33;;
59974;SDS011;62136;-35.664;-63.766;2023-10-19T12:11:11;12.10;;;2.80;;
59974;SDS011;62136;-35.664;-63.766;2023-10-19T12:13:42;9.70;;;3.03;;
59974;SDS011;62136;-35.664;-63.766;2023-10-19T12:16:10;11.80;;;3.50;;
59974;SDS011;62136;-35.664;-63.766;2023-10-19T12:18:45;13.40;;;4.10;;
59974;SDS011;62136;-35.664;-63.766;2023-10-19T12:21:14;11.30;;;3.67;;
59974;SDS011;62136;-35.664;-63.766;2023-10-19T12:23:43;15.55;;;4.65;;
59974;SDS011;62136;-35.664;-63.766;2023-10-19T12:26:16;14.57;;;3.83;;
59974;SDS011;62136;-35.664;-63.766;2023-10-19T12:28:45;14.45;;;3.80;;
59974;SDS011;62136;-35.664;-63.766;2023-10-19T12:31:13;14.02;;;3.65;;
59974;SDS011;62136;-35.664;-63.766;2023-10-19T12:33:40;16.20;;;4.03;;
59974;SDS011;62136;-35.664;-63.766;2023-10-19T12:36:07;14.60;;;4.32;;
59974;SDS011;62136;-35.664;-63.766;2023-10-19T12:38:53;14.05;;;4.68;;
59974;SDS011;62136;-35.664;-63.766;2023-10-19T12:41:21;17.23;;;4.57;;
59974;SDS011;62136;-35.664;-63.766;2023-10-19T12:43:49;16.13;;;4.65;;
59974;SDS011;62136;-35.664;-63.766;2023-10-19T12:46:34;10.73;;;4.00;;
59974;SDS011;62136;-35.664;-63.766;2023-10-19T12:49:05;13.75;;;4.82;;
59974;SDS011;62136;-35.664;-63.766;2023-10-19T12:51:41;11.68;;;5.03;;
59974;SDS011;62136;-35.664;-63.766;2023-10-19T12:54:11;13.02;;;4.68;;
59974;SDS011;62136;-35.664;-63.766;2023-10-19T12:56:39;14.68;;;4.70;;
59974;SDS011;62136;-35.664;-63.766;2023-10-19T12:59:06;26.80;;;7.40;;
59974;SDS011;62136;-35.664;-63.766;2023-10-19T13:01:34;21.70;;;6.53;;
59974;SDS011;62136;-35.664;-63.766;2023-10-19T13:04:01;22.80;;;6.05;;
59974;SDS011;62136;-35.664;-63.766;2023-10-19T13:06:50;24.98;;;6.97;;
59974;SDS011;62136;-35.664;-63.766;2023-10-19T13:09:17;21.48;;;6.50;;
59974;SDS011;62136;-35.664;-63.766;2023-10-19T13:11:50;22.35;;;6.95;;
59974;SDS011;62136;-35.664;-63.766;2023-10-19T13:14:17;28.45;;;6.75;;
59974;SDS011;62136;-35.664;-63.766;2023-10-19T13:16:44;35.45;;;9.57;;
59974;SDS011;62136;-35.664;-63.766;2023-10-19T13:19:13;29.85;;;9.45;;
59974;SDS011;62136;-35.664;-63.766;2023-10-19T13:21:45;33.92;;;9.55;;
59974;SDS011;62136;-35.664;-63.766;2023-10-19T13:24:15;35.67;;;10.70;;
59974;SDS011;62136;-35.664;-63.766;2023-10-19T13:26:43;30.08;;;9.43;;
59974;SDS011;62136;-35.664;-63.766;2023-10-19T13:29:12;39.55;;;11.05;;
59974;SDS011;62136;-35.664;-63.766;2023-10-19T13:31:45;39.55;;;11.02;;
59974;SDS011;62136;-35.664;-63.766;2023-10-19T13:34:16;42.85;;;11.35;;
59974;SDS011;62136;-35.664;-63.766;2023-10-19T13:36:43;37.63;;;10.85;;
59974;SDS011;62136;-35.664;-63.766;2023-10-19T13:39:11;41.38;;;11.30;;
59974;SDS011;62136;-35.664;-63.766;2023-10-19T13:41:42;34.47;;;9.80;;
59974;SDS011;62136;-35.664;-63.766;2023-10-19T13:44:09;35.35;;;10.77;;
59974;SDS011;62136;-35.664;-63.766;2023-10-19T13:46:40;30.77;;;9.93;;
59974;SDS011;62136;-35.664;-63.766;2023-10-19T13:49:07;26.75;;;8.90;;
59974;SDS011;62136;-35.664;-63.766;2023-10-19T13:51:35;28.08;;;10.48;;
59974;SDS011;62136;-35.664;-63.766;2023-10-19T13:54:02;30.33;;;9.18;;
59974;SDS011;62136;-35.664;-63.766;2023-10-19T13:56:29;21.23;;;7.63;;
59974;SDS011;62136;-35.664;-63.766;2023-10-19T13:58:56;29.23;;;7.03;;
59974;SDS011;62136;-35.664;-63.766;2023-10-19T14:01:24;23.10;;;7.65;;
59974;SDS011;62136;-35.664;-63.766;2023-10-19T14:03:54;24.13;;;7.78;;
59974;SDS011;62136;-35.664;-63.766;2023-10-19T14:06:21;24.05;;;8.68;;
59974;SDS011;62136;-35.664;-63.766;2023-10-19T14:08:50;23.13;;;6.88;;
59974;SDS011;62136;-35.664;-63.766;2023-10-19T14:11:21;22.70;;;7.10;;
59974;SDS011;62136;-35.664;-63.766;2023-10-19T14:13:49;17.20;;;6.65;;
59974;SDS011;62136;-35.664;-63.766;2023-10-19T14:16:17;18.88;;;7.53;;
59974;SDS011;62136;-35.664;-63.766;2023-10-19T14:18:45;22.85;;;9.27;;
59974;SDS011;62136;-35.664;-63.766;2023-10-19T14:21:16;25.70;;;7.53;;
59974;SDS011;62136;-35.664;-63.766;2023-10-19T14:23:45;17.90;;;7.28;;
59974;SDS011;62136;-35.664;-63.766;2023-10-19T14:26:16;19.25;;;7.20;;
59974;SDS011;62136;-35.664;-63.766;2023-10-19T14:28:44;19.60;;;6.90;;
59974;SDS011;62136;-35.664;-63.766;2023-10-19T14:31:11;20.90;;;7.07;;
59974;SDS011;62136;-35.664;-63.766;2023-10-19T14:33:45;19.80;;;5.93;;
59974;SDS011;62136;-35.664;-63.766;2023-10-19T14:36:25;18.45;;;6.28;;
59974;SDS011;62136;-35.664;-63.766;2023-10-19T14:38:54;15.18;;;5.95;;
59974;SDS011;62136;-35.664;-63.766;2023-10-19T14:41:21;18.35;;;6.85;;
59974;SDS011;62136;-35.664;-63.766;2023-10-19T14:43:49;16.58;;;5.88;;
59974;SDS011;62136;-35.664;-63.766;2023-10-19T14:46:16;13.68;;;5.78;;
59974;SDS011;62136;-35.664;-63.766;2023-10-19T14:48:43;10.85;;;5.15;;